Hovedside
METAR-TAF:

METAR-TAF

Lufthavner :

Nyslott lufthavn

Nyslott, Finland

breddegrad: 61-57N, lengdegrad: 028-57E, høyde over havet: 95 m

Gjeldene værobservasjon

Denne rapporten ble laget for 31 minutter siden, klokken 21:50 UTC
Vind 4 kt fra Sørvest, skiftende mellom Sør og Vest
Temperatur 0°C
Luftfuktighet 64%
Trykk 999 hPa
Sikt 10 km eller mer
ingen skyer under 1500 m og ingen bygeskyer

METAR: EFSA 242150Z AUTO 23004KT 180V280 CAVOK 00/M06 Q0999

Tid: 00:21 (22:21 UTC)


TAF: fraværende

Værobservasjoner og værvarsel for over 4000 flyplasser (METAR- og TAF-rapporter).

Tilgjengelige stasjoner er representert av de røde og gule prikkene på kartet.

Hold musepekeren over prikken for å se navnet på stasjonen.

Klikk så for å se værobservasjoner og -varsler.

For å forandre kartet kan du klikke på den grønne knappen med svart kryss for å zoome inn, på den grønne knappen med strek for å zoome ut, eller på de grønne pilene for å se tilstøtende kart.


METAR-TAF: